Time;durP1;ratioP1;P1;durP2;ratioP2;P2;SDS_P1;SDS_P2;PMS_P1;PMS_P2;Temp;Humidity;BMP_temperature;BMP_pressure;BME280_temperature;BME280_humidity;BME280_pressure;Samples;Min_cycle;Max_cycle;Signal;HPM_P1;HPM_P2
2023/07/18 00:00:13;;;;;;;5.47;2.10;;;14.70;99.90;;;;;;6220544;23;20020;-92
2023/07/18 00:03:12;;;;;;;5.15;2.20;;;14.70;99.90;;;;;;6207231;23;20386;-93
2023/07/18 00:06:03;;;;;;;7.88;2.50;;;14.90;94.30;;;;;;6249680;23;20055;-94
2023/07/18 00:08:51;;;;;;;6.53;2.40;;;15.00;87.50;;;;;;6231428;23;20020;-93
2023/07/18 00:11:41;;;;;;;5.95;2.72;;;15.10;69.00;;;;;;6251257;23;20082;-92
2023/07/18 00:14:29;;;;;;;6.57;2.55;;;15.10;61.10;;;;;;6250711;23;20338;-93
2023/07/18 00:17:17;;;;;;;7.35;2.75;;;15.00;70.20;;;;;;6250358;23;20085;-93
2023/07/18 00:20:18;;;;;;;4.32;2.60;;;15.00;87.80;;;;;;6229397;23;20099;-94
2023/07/18 00:23:10;;;;;;;4.57;2.60;;;14.90;97.00;;;;;;6250848;23;20072;-92
2023/07/18 00:25:57;;;;;;;5.50;2.60;;;14.90;99.90;;;;;;6252218;23;20030;-95
2023/07/18 00:28:45;;;;;;;7.05;2.25;;;14.80;99.90;;;;;;6251735;23;20035;-93
2023/07/18 00:31:32;;;;;;;5.88;2.55;;;14.70;99.90;;;;;;6255767;23;20020;-91
2023/07/18 00:34:30;;;;;;;5.60;2.47;;;14.60;99.90;;;;;;6235731;23;20135;-93
2023/07/18 00:37:17;;;;;;;5.85;2.33;;;14.40;99.90;;;;;;6249812;23;20034;-91
2023/07/18 00:40:11;;;;;;;6.07;2.25;;;14.40;99.90;;;;;;6251483;23;20039;-93
2023/07/18 00:42:58;;;;;;;5.40;2.40;;;14.30;99.90;;;;;;6232242;23;20065;-94
2023/07/18 00:45:49;;;;;;;3.20;2.13;;;14.40;99.90;;;;;;6228587;23;20047;-92
2023/07/18 00:48:37;;;;;;;5.90;2.60;;;14.30;99.90;;;;;;6231063;23;20032;-94
2023/07/18 00:51:25;;;;;;;6.53;2.40;;;14.20;99.90;;;;;;6252775;23;20047;-93
2023/07/18 00:54:13;;;;;;;4.85;2.17;;;14.00;99.90;;;;;;6252437;23;20024;-93
2023/07/18 00:57:04;;;;;;;4.47;2.50;;;13.80;99.90;;;;;;6253230;23;20024;-93
2023/07/18 00:59:53;;;;;;;7.25;2.47;;;13.60;99.90;;;;;;6227513;23;20078;-92
2023/07/18 01:02:43;;;;;;;3.70;1.90;;;13.60;99.90;;;;;;6254479;23;20030;-91
2023/07/18 01:05:31;;;;;;;4.78;2.03;;;13.60;99.90;;;;;;6249948;23;20321;-94
2023/07/18 01:08:18;;;;;;;5.50;2.70;;;13.60;99.90;;;;;;6207927;23;20030;-93
2023/07/18 01:11:07;;;;;;;4.47;2.13;;;13.40;99.90;;;;;;6250264;23;20082;-94
2023/07/18 01:13:56;;;;;;;5.40;2.33;;;13.40;99.90;;;;;;6251399;23;20419;-92
2023/07/18 01:16:44;;;;;;;5.03;2.80;;;13.60;99.90;;;;;;6259762;23;20114;-92
2023/07/18 01:19:31;;;;;;;6.32;2.30;;;13.80;99.90;;;;;;6247504;22;20030;-87
2023/07/18 01:22:21;;;;;;;5.20;2.40;;;13.80;99.90;;;;;;6270195;22;20046;-88
2023/07/18 01:25:13;;;;;;;5.43;2.53;;;13.80;99.90;;;;;;6243746;23;20120;-94
2023/07/18 01:28:00;;;;;;;2.93;1.80;;;13.70;99.90;;;;;;6249231;23;20017;-94
2023/07/18 01:30:48;;;;;;;8.73;2.40;;;13.60;99.90;;;;;;6247758;23;20113;-93
2023/07/18 01:33:36;;;;;;;4.28;2.53;;;13.50;99.90;;;;;;6247058;23;20074;-92
2023/07/18 01:36:28;;;;;;;5.22;2.55;;;13.50;99.90;;;;;;6248602;23;20028;-93
2023/07/18 01:39:17;;;;;;;5.88;2.13;;;13.50;99.90;;;;;;6247625;23;20043;-93
2023/07/18 01:42:07;;;;;;;4.47;2.40;;;13.40;99.90;;;;;;6247235;23;20082;-93
2023/07/18 01:44:55;;;;;;;5.97;2.60;;;13.40;99.90;;;;;;6226249;23;20054;-90
2023/07/18 01:47:42;;;;;;;4.20;2.58;;;13.40;99.90;;;;;;6247717;23;20024;-92
2023/07/18 01:50:30;;;;;;;6.25;2.45;;;13.20;1.00;;;;;;6247519;23;20024;-93
2023/07/18 01:53:17;;;;;;;7.85;2.78;;;13.00;1.00;;;;;;6246625;23;20032;-94
2023/07/18 01:56:05;;;;;;;7.20;2.75;;;12.80;1.00;;;;;;6223940;23;20032;-92
2023/07/18 01:58:53;;;;;;;5.43;2.58;;;12.60;79.70;;;;;;6246536;23;20035;-93
2023/07/18 02:01:44;;;;;;;6.90;2.60;;;12.50;99.90;;;;;;6245653;23;20043;-93
2023/07/18 02:04:33;;;;;;;6.38;2.80;;;12.40;99.90;;;;;;6216855;23;20032;-94
2023/07/18 02:07:21;;;;;;;7.82;3.25;;;12.30;99.90;;;;;;6214970;23;20111;-92
2023/07/18 02:10:08;;;;;;;3.95;2.50;;;12.30;99.90;;;;;;6218318;23;20099;-93
2023/07/18 02:13:01;;;;;;;5.80;2.40;;;12.30;99.90;;;;;;6215359;23;20332;-92
2023/07/18 02:15:49;;;;;;;7.30;2.65;;;12.20;99.90;;;;;;6215105;23;20084;-93
2023/07/18 02:18:39;;;;;;;5.43;2.72;;;12.20;99.90;;;;;;6215164;23;20179;-92
2023/07/18 02:21:28;;;;;;;5.65;2.63;;;12.30;1.00;;;;;;6218940;23;20099;-93
2023/07/18 02:24:17;;;;;;;11.43;2.97;;;12.40;99.90;;;;;;6218577;23;20028;-92
2023/07/18 02:27:05;;;;;;;7.97;3.00;;;12.60;99.90;;;;;;6217753;23;20076;-92
2023/07/18 02:29:54;;;;;;;8.30;2.60;;;12.80;99.90;;;;;;6214980;23;20024;-91
2023/07/18 02:32:45;;;;;;;7.80;2.75;;;12.90;99.90;;;;;;6220038;23;20017;-93
2023/07/18 02:35:33;;;;;;;7.80;2.95;;;12.90;99.90;;;;;;6218500;23;20028;-93
2023/07/18 02:38:20;;;;;;;4.47;2.22;;;12.80;99.90;;;;;;6216380;23;20060;-93
2023/07/18 02:41:10;;;;;;;5.03;2.72;;;12.70;99.90;;;;;;6217372;23;20045;-93
2023/07/18 02:44:10;;;;;;;;;;;;;;;;;;;;;
2023/07/18 02:47:00;;;;;;;8.07;2.90;;;12.60;38.90;;;;;;6218117;23;20309;-92
2023/07/18 02:49:50;;;;;;;4.32;2.33;;;12.70;1.00;;;;;;6218314;23;20024;-93
2023/07/18 02:52:38;;;;;;;6.47;2.50;;;12.70;1.00;;;;;;6219635;23;20107;-95
2023/07/18 02:55:28;;;;;;;7.63;3.17;;;12.80;1.00;;;;;;6220563;23;20078;-94
2023/07/18 02:58:16;;;;;;;7.50;2.90;;;12.70;1.00;;;;;;6222475;23;20031;-92
2023/07/18 03:01:06;;;;;;;6.00;2.80;;;12.60;1.00;;;;;;6219508;23;20029;-92
2023/07/18 03:03:56;;;;;;;8.17;2.57;;;12.50;1.00;;;;;;6225342;23;20035;-93
2023/07/18 03:06:47;;;;;;;8.40;3.22;;;12.40;9.70;;;;;;6249333;23;20143;-94
2023/07/18 03:09:36;;;;;;;7.40;3.03;;;12.30;40.60;;;;;;6225480;23;20362;-92
2023/07/18 03:12:24;;;;;;;8.90;3.00;;;12.40;90.60;;;;;;6249740;23;20422;-93
2023/07/18 03:15:14;;;;;;;7.50;2.80;;;12.50;99.90;;;;;;6228041;23;20031;-93
2023/07/18 03:18:01;;;;;;;5.75;2.78;;;12.60;99.90;;;;;;6252654;23;20032;-93
2023/07/18 03:20:49;;;;;;;4.93;2.83;;;12.60;99.90;;;;;;6229517;23;20062;-93
2023/07/18 03:23:39;;;;;;;6.43;3.20;;;12.60;96.80;;;;;;6247169;23;20436;-94
2023/07/18 03:26:29;;;;;;;8.95;3.58;;;12.60;93.60;;;;;;6225422;23;20035;-94
2023/07/18 03:29:25;;;;;;;5.32;2.97;;;12.60;99.90;;;;;;6247427;23;20285;-93
2023/07/18 03:32:16;;;;;;;4.28;3.15;;;12.60;99.90;;;;;;6227922;23;20289;-94
2023/07/18 03:35:06;;;;;;;4.40;2.80;;;12.50;99.90;;;;;;6248270;23;20023;-94
2023/07/18 03:38:05;;;;;;;13.23;4.22;;;12.40;99.90;;;;;;6247423;23;20030;-94
2023/07/18 03:40:53;;;;;;;4.63;2.55;;;12.40;99.90;;;;;;6246347;23;20378;-94
2023/07/18 03:43:41;;;;;;;5.05;3.03;;;12.40;99.90;;;;;;6224633;23;20024;-95
2023/07/18 03:46:29;;;;;;;10.85;2.78;;;12.40;99.90;;;;;;6246786;23;20281;-93
2023/07/18 03:49:20;;;;;;;5.90;3.13;;;12.40;99.90;;;;;;6224977;23;20024;-94
2023/07/18 03:52:09;;;;;;;5.70;3.17;;;12.40;99.90;;;;;;6247991;23;20027;-94
2023/07/18 03:54:59;;;;;;;3.80;2.78;;;12.50;99.90;;;;;;6225686;23;20046;-94
2023/07/18 03:57:49;;;;;;;5.13;2.60;;;12.60;99.90;;;;;;6229097;23;20038;-94
2023/07/18 04:01:08;;;;;;;7.13;3.10;;;12.60;99.90;;;;;;6259096;23;20356;-92
2023/07/18 04:04:05;;;;;;;6.47;2.95;;;12.60;99.90;;;;;;6235201;22;20415;-89
2023/07/18 04:06:54;;;;;;;7.78;3.10;;;12.50;99.90;;;;;;6234341;23;20055;-94
2023/07/18 04:09:46;;;;;;;5.35;3.40;;;12.40;99.90;;;;;;6205043;23;20472;-92
2023/07/18 04:12:34;;;;;;;5.25;2.83;;;12.30;99.90;;;;;;6194681;23;20305;-92
2023/07/18 04:15:24;;;;;;;8.23;3.63;;;12.30;99.90;;;;;;6218662;23;20424;-92
2023/07/18 04:18:20;;;;;;;8.73;3.53;;;12.30;99.90;;;;;;6204728;23;20427;-92
2023/07/18 04:21:08;;;;;;;5.78;2.80;;;12.30;99.90;;;;;;6198750;23;20030;-91
2023/07/18 04:23:55;;;;;;;4.38;2.95;;;12.40;99.90;;;;;;6217627;23;20021;-88
2023/07/18 04:26:43;;;;;;;4.85;2.88;;;12.40;99.90;;;;;;6197380;23;20056;-92
2023/07/18 04:29:32;;;;;;;7.13;3.42;;;12.50;99.90;;;;;;6219559;23;20043;-89
2023/07/18 04:32:23;;;;;;;9.85;3.08;;;12.50;99.90;;;;;;6216437;23;20028;-87
2023/07/18 04:35:19;;;;;;;7.10;2.88;;;12.60;99.90;;;;;;6218029;23;20835;-92
2023/07/18 04:38:20;;;;;;;7.07;2.75;;;12.80;99.90;;;;;;6199858;23;20035;-93
2023/07/18 04:41:08;;;;;;;7.43;2.50;;;12.80;99.90;;;;;;6216208;23;20503;-91
2023/07/18 04:43:57;;;;;;;6.70;2.40;;;12.80;99.90;;;;;;6217442;23;20340;-93
2023/07/18 04:46:46;;;;;;;8.43;3.45;;;12.90;99.90;;;;;;6218008;23;20711;-88
2023/07/18 04:49:36;;;;;;;6.00;2.60;;;12.90;99.90;;;;;;6217523;23;20080;-92
2023/07/18 04:52:26;;;;;;;10.00;3.60;;;13.00;99.90;;;;;;6216183;23;20038;-92
2023/07/18 04:55:15;;;;;;;8.43;3.70;;;13.10;99.90;;;;;;6186128;23;20032;-88
2023/07/18 04:58:04;;;;;;;6.05;3.65;;;13.20;99.90;;;;;;6195904;23;20035;-90
2023/07/18 05:00:54;;;;;;;12.15;4.22;;;13.30;89.50;;;;;;6215883;23;20024;-91
2023/07/18 05:03:42;;;;;;;7.97;3.60;;;13.40;49.90;;;;;;6215941;23;20036;-89
2023/07/18 05:06:48;;;;;;;7.80;3.77;;;13.60;9.80;;;;;;6216879;23;20494;-92
2023/07/18 05:09:38;;;;;;;7.00;3.73;;;13.60;1.00;;;;;;6220370;23;20052;-90
2023/07/18 05:12:25;;;;;;;8.50;3.60;;;13.70;1.00;;;;;;6217350;23;20036;-90
2023/07/18 05:15:15;;;;;;;10.25;4.15;;;13.80;1.00;;;;;;6216255;23;20024;-91
2023/07/18 05:18:03;;;;;;;6.15;2.90;;;13.80;1.00;;;;;;6218502;23;20024;-89
2023/07/18 05:20:54;;;;;;;5.10;3.33;;;13.90;1.00;;;;;;6218520;23;20052;-92
2023/07/18 05:23:42;;;;;;;11.10;3.10;;;13.90;1.00;;;;;;6216620;23;20040;-89
2023/07/18 05:26:31;;;;;;;6.72;2.88;;;14.00;1.00;;;;;;6214769;23;20028;-92
2023/07/18 05:29:18;;;;;;;9.45;2.95;;;14.20;1.00;;;;;;6215188;23;20028;-90
2023/07/18 05:32:06;;;;;;;6.95;2.90;;;14.50;1.00;;;;;;6194805;23;20039;-91
2023/07/18 05:34:53;;;;;;;4.03;2.42;;;14.70;1.00;;;;;;6223145;23;20072;-90
2023/07/18 05:37:46;;;;;;;4.32;2.30;;;14.90;99.90;;;;;;6199672;23;20420;-89
2023/07/18 05:40:34;;;;;;;4.40;2.47;;;15.10;99.90;;;;;;6216365;23;20029;-93
2023/07/18 05:43:24;;;;;;;8.82;2.72;;;15.20;99.90;;;;;;6196617;23;20046;-91
2023/07/18 05:46:18;;;;;;;9.35;2.70;;;15.30;99.90;;;;;;6217258;23;20082;-92
2023/07/18 05:49:06;;;;;;;11.93;2.72;;;15.40;99.90;;;;;;6195773;23;20061;-86
2023/07/18 05:51:53;;;;;;;6.68;2.53;;;15.60;99.90;;;;;;6215211;23;20031;-90
2023/07/18 05:54:41;;;;;;;9.43;2.67;;;15.70;99.90;;;;;;6214111;23;20036;-91
2023/07/18 05:57:28;;;;;;;4.75;2.28;;;15.90;99.90;;;;;;6212774;23;20099;-88
2023/07/18 06:00:15;;;;;;;4.30;2.40;;;16.00;99.90;;;;;;6219204;23;20032;-88
2023/07/18 06:03:05;;;;;;;7.78;2.92;;;16.00;99.90;;;;;;6212774;23;20024;-91
2023/07/18 06:05:54;;;;;;;8.80;3.78;;;16.10;99.90;;;;;;6216411;23;20044;-89
2023/07/18 06:08:43;;;;;;;8.40;2.83;;;16.20;99.90;;;;;;6213916;23;20043;-93
2023/07/18 06:11:31;;;;;;;12.73;5.28;;;16.30;99.90;;;;;;6193561;23;20090;-92
2023/07/18 06:14:18;;;;;;;3.25;1.63;;;16.40;99.90;;;;;;6192180;23;20036;-89
2023/07/18 06:17:05;;;;;;;8.30;1.80;;;16.50;99.90;;;;;;6215878;23;20035;-90
2023/07/18 06:19:53;;;;;;;3.78;1.75;;;16.50;99.90;;;;;;6216876;23;20017;-88
2023/07/18 06:22:44;;;;;;;3.38;1.70;;;16.60;99.90;;;;;;6215708;23;20048;-89
2023/07/18 06:25:31;;;;;;;4.32;1.67;;;16.70;99.90;;;;;;6213298;23;20025;-88
2023/07/18 06:28:19;;;;;;;7.03;2.15;;;16.90;99.90;;;;;;6193164;23;20301;-89
2023/07/18 06:31:06;;;;;;;7.00;1.88;;;17.00;99.90;;;;;;6214931;23;20039;-88
2023/07/18 06:33:54;;;;;;;4.55;2.05;;;17.20;99.90;;;;;;6214318;23;20039;-88
2023/07/18 06:36:44;;;;;;;3.80;1.60;;;17.40;99.90;;;;;;6194276;23;20025;-88
2023/07/18 06:39:32;;;;;;;8.45;1.80;;;17.50;75.20;;;;;;6194707;23;20024;-87
2023/07/18 06:42:20;;;;;;;7.20;1.73;;;17.50;64.60;;;;;;6193021;23;20118;-88
2023/07/18 06:45:08;;;;;;;7.82;2.28;;;17.60;56.20;;;;;;6214089;23;20035;-90
2023/07/18 06:47:55;;;;;;;8.25;2.10;;;17.70;52.60;;;;;;6194654;23;20036;-89
2023/07/18 06:50:50;;;;;;;5.25;1.73;;;17.90;35.00;;;;;;6213893;23;20042;-90
2023/07/18 06:53:39;;;;;;;5.80;1.83;;;17.80;15.30;;;;;;6195249;23;20039;-91
2023/07/18 06:56:26;;;;;;;7.28;1.73;;;17.90;17.90;;;;;;6195277;23;20020;-92
2023/07/18 06:59:16;;;;;;;7.35;1.95;;;18.10;6.60;;;;;;6216878;23;20028;-90
2023/07/18 07:02:21;;;;;;;6.78;1.70;;;18.40;1.00;;;;;;6200158;23;20104;-92
2023/07/18 07:05:09;;;;;;;8.23;1.60;;;18.60;1.00;;;;;;6215014;23;20020;-93
2023/07/18 07:08:24;;;;;;;5.63;1.50;;;18.90;1.00;;;;;;6191967;23;20335;-93
2023/07/18 07:11:41;;;;;;;3.30;1.48;;;19.20;1.00;;;;;;6217303;23;20036;-95
2023/07/18 07:14:50;;;;;;;5.13;2.13;;;19.70;1.00;;;;;;6197037;23;20056;-89
2023/07/18 07:17:37;;;;;;;3.97;1.63;;;20.10;1.00;;;;;;6213941;23;20420;-93
2023/07/18 07:20:25;;;;;;;2.55;1.60;;;20.40;1.00;;;;;;6215129;23;20036;-90
2023/07/18 07:23:12;;;;;;;10.60;2.38;;;20.90;1.00;;;;;;6195684;23;20020;-89
2023/07/18 07:26:00;;;;;;;4.47;1.92;;;21.10;1.00;;;;;;6193308;23;20024;-91
2023/07/18 07:28:47;;;;;;;4.22;1.70;;;21.50;1.00;;;;;;6192384;23;20031;-88
2023/07/18 07:31:37;;;;;;;5.13;1.63;;;21.90;1.00;;;;;;6193366;23;20472;-91
2023/07/18 07:34:37;;;;;;;2.60;1.55;;;22.40;1.00;;;;;;6193723;23;20040;-91
2023/07/18 07:37:28;;;;;;;2.95;1.70;;;23.00;1.00;;;;;;6214402;23;20103;-90
2023/07/18 07:40:15;;;;;;;4.15;1.70;;;23.30;1.00;;;;;;6192532;23;20502;-92
2023/07/18 07:43:03;;;;;;;3.92;1.48;;;23.60;1.00;;;;;;6193008;23;20067;-92
2023/07/18 07:45:50;;;;;;;4.57;1.90;;;23.70;1.00;;;;;;6216264;23;20024;-93
2023/07/18 07:48:40;;;;;;;2.28;1.55;;;24.20;1.00;;;;;;6217141;23;20435;-93
2023/07/18 07:51:29;;;;;;;3.67;1.65;;;24.20;1.00;;;;;;6194473;23;20021;-91
2023/07/18 07:54:16;;;;;;;3.80;1.48;;;24.60;1.00;;;;;;6216325;23;20025;-90
2023/07/18 08:25:17;;;;;;;2.58;1.45;;;26.10;1.00;;;;;;6217598;23;20066;-88
2023/07/18 08:28:05;;;;;;;4.57;1.52;;;26.90;1.00;;;;;;6218274;23;20035;-93
2023/07/18 08:30:54;;;;;;;5.75;1.70;;;26.70;1.00;;;;;;6214524;23;20111;-93
2023/07/18 08:33:44;;;;;;;3.65;1.58;;;27.00;1.00;;;;;;6215215;23;20025;-92
2023/07/18 08:36:34;;;;;;;5.68;1.48;;;27.50;1.00;;;;;;6214795;23;20024;-90
2023/07/18 08:39:25;;;;;;;6.13;1.98;;;27.60;1.00;;;;;;6215914;23;20651;-93
2023/07/18 08:42:14;;;;;;;2.13;1.67;;;27.90;1.00;;;;;;6214976;23;20020;-91
2023/07/18 08:45:08;;;;;;;5.93;1.88;;;28.10;1.00;;;;;;6214647;23;20063;-92
2023/07/18 08:47:56;;;;;;;5.88;1.70;;;28.00;1.00;;;;;;6194129;23;20422;-91
2023/07/18 08:50:55;;;;;;;8.57;1.90;;;27.60;1.00;;;;;;6217728;23;20029;-93
2023/07/18 08:53:47;;;;;;;3.13;1.88;;;27.60;1.00;;;;;;6194755;23;20039;-91
2023/07/18 08:56:47;;;;;;;7.13;1.80;;;28.00;1.00;;;;;;6215016;23;20029;-93
2023/07/18 08:59:35;;;;;;;6.43;1.98;;;28.60;1.00;;;;;;6215473;23;20040;-91
2023/07/18 09:02:23;;;;;;;4.07;1.55;;;28.90;1.00;;;;;;6193439;23;20032;-92
2023/07/18 09:05:38;;;;;;;4.07;1.75;;;28.90;1.00;;;;;;6183988;23;20071;-91
2023/07/18 09:08:26;;;;;;;4.63;1.73;;;29.60;1.00;;;;;;6185043;23;20021;-92
2023/07/18 09:11:18;;;;;;;5.13;2.03;;;29.10;1.00;;;;;;6185542;23;20021;-89
2023/07/18 09:14:05;;;;;;;3.20;1.75;;;28.50;1.00;;;;;;6187824;23;20321;-91
2023/07/18 09:17:04;;;;;;;4.25;2.00;;;27.90;1.00;;;;;;6187551;23;20025;-91
2023/07/18 09:19:52;;;;;;;4.05;2.00;;;28.30;1.00;;;;;;6185909;23;20029;-92
2023/07/18 09:22:42;;;;;;;4.07;2.10;;;29.20;1.00;;;;;;6188594;23;20421;-91
2023/07/18 09:25:33;;;;;;;4.03;1.80;;;30.00;1.00;;;;;;6187811;23;20351;-92
2023/07/18 09:28:34;;;;;;;5.28;1.88;;;30.30;1.00;;;;;;6187579;23;20036;-91
2023/07/18 09:31:25;;;;;;;6.13;2.17;;;30.30;1.00;;;;;;6185232;23;20021;-93
2023/07/18 09:34:23;;;;;;;6.13;2.15;;;30.60;1.00;;;;;;6194463;23;20058;-93
2023/07/18 09:37:12;;;;;;;2.80;1.80;;;30.10;1.00;;;;;;6197512;23;20032;-91
2023/07/18 09:40:02;;;;;;;13.15;2.40;;;30.10;1.00;;;;;;6185866;23;20043;-92
2023/07/18 09:43:01;;;;;;;4.00;2.13;;;30.60;1.00;;;;;;6186492;23;20128;-92
2023/07/18 09:45:52;;;;;;;3.70;2.10;;;30.90;1.00;;;;;;6184503;23;20037;-92
2023/07/18 09:48:41;;;;;;;4.72;1.98;;;30.90;1.00;;;;;;6184481;23;20097;-93
2023/07/18 09:51:33;;;;;;;5.18;2.40;;;30.80;1.00;;;;;;6185358;23;20025;-92
2023/07/18 09:54:36;;;;;;;3.97;2.03;;;31.10;1.00;;;;;;6187180;23;20025;-91
2023/07/18 09:57:29;;;;;;;5.78;2.38;;;30.50;1.00;;;;;;6185030;23;20318;-92
2023/07/18 10:00:57;;;;;;;4.97;2.38;;;29.40;1.00;;;;;;6185259;23;20025;-91
2023/07/18 10:03:54;;;;;;;4.53;2.45;;;28.60;1.00;;;;;;6193841;23;20035;-93
2023/07/18 10:06:43;;;;;;;5.22;2.50;;;28.30;1.00;;;;;;6215961;23;20021;-93
2023/07/18 10:09:58;;;;;;;4.60;2.60;;;27.30;1.00;;;;;;6228200;23;20084;-93
2023/07/18 10:13:01;;;;;;;6.25;2.70;;;26.20;1.00;;;;;;6192136;23;20052;-93
2023/07/18 10:16:11;;;;;;;4.72;2.53;;;25.40;1.00;;;;;;6219772;23;20039;-94
2023/07/18 10:19:15;;;;;;;5.82;2.78;;;25.10;1.00;;;;;;6221581;23;20097;-94
2023/07/18 10:22:02;;;;;;;4.63;3.03;;;25.00;1.00;;;;;;6217192;23;20104;-92
2023/07/18 10:24:50;;;;;;;5.22;2.80;;;24.70;1.00;;;;;;6192515;23;20028;-93
2023/07/18 10:27:42;;;;;;;4.78;2.92;;;24.50;1.00;;;;;;6215923;23;20031;-91
2023/07/18 10:30:42;;;;;;;5.28;2.90;;;24.10;1.00;;;;;;6214957;23;20028;-91
2023/07/18 10:33:33;;;;;;;5.95;3.10;;;24.00;1.00;;;;;;6196197;23;20032;-92
2023/07/18 10:36:26;;;;;;;5.57;2.88;;;24.20;1.00;;;;;;6196187;23;20032;-91
2023/07/18 10:39:14;;;;;;;7.40;2.85;;;24.70;1.00;;;;;;6193935;23;20039;-93
2023/07/18 10:42:32;;;;;;;3.60;2.28;;;25.50;1.00;;;;;;6193212;23;20052;-92
2023/07/18 10:45:26;;;;;;;5.78;2.97;;;26.00;1.00;;;;;;6214378;23;20025;-93
2023/07/18 10:48:19;;;;;;;11.57;2.63;;;26.30;1.00;;;;;;6194259;23;20020;-92
2023/07/18 10:51:08;;;;;;;5.40;2.67;;;26.60;1.00;;;;;;6196393;23;20027;-93
2023/07/18 10:53:58;;;;;;;5.55;2.70;;;27.00;1.00;;;;;;6215078;23;20031;-92
2023/07/18 10:57:40;;;;;;;6.05;2.97;;;27.10;1.00;;;;;;6215217;23;20264;-94
2023/07/18 11:00:40;;;;;;;7.40;2.95;;;27.50;1.00;;;;;;6188567;23;20024;-92
2023/07/18 11:03:35;;;;;;;7.03;3.08;;;27.10;1.00;;;;;;6195002;23;20056;-93
2023/07/18 11:06:59;;;;;;;5.78;3.03;;;26.50;1.00;;;;;;6217335;23;20418;-93
2023/07/18 11:10:07;;;;;;;5.82;3.28;;;26.10;1.00;;;;;;6216714;23;20094;-92
2023/07/18 11:12:55;;;;;;;5.15;3.10;;;25.50;1.00;;;;;;6194292;23;20059;-92
2023/07/18 11:15:45;;;;;;;6.78;2.90;;;25.40;1.00;;;;;;6213509;23;20127;-91
2023/07/18 11:18:54;;;;;;;6.28;3.58;;;24.90;1.00;;;;;;6215281;23;20060;-92
2023/07/18 11:21:51;;;;;;;7.25;3.30;;;24.40;1.00;;;;;;6214087;23;20035;-91
2023/07/18 11:25:11;;;;;;;4.65;3.25;;;24.10;1.00;;;;;;6193649;23;20033;-92
2023/07/18 11:28:08;;;;;;;6.63;3.28;;;23.90;1.00;;;;;;6193584;23;20032;-93
2023/07/18 11:31:18;;;;;;;9.52;3.45;;;23.80;1.00;;;;;;6217972;23;20036;-93
2023/07/18 11:34:28;;;;;;;6.40;3.28;;;23.60;1.00;;;;;;6200994;23;20632;-92
2023/07/18 11:37:29;;;;;;;;;;;23.20;1.00;;;;;;6196060;23;20428;-94
2023/07/18 11:40:32;;;;;;;9.48;3.78;;;22.60;1.00;;;;;;6204800;23;20264;-92
2023/07/18 11:43:42;;;;;;;;;;;;;;;;;;;;;
2023/07/18 11:46:43;;;;;;;8.82;3.55;;;21.20;1.00;;;;;;6223380;23;20039;-90
2023/07/18 11:49:35;;;;;;;9.55;3.75;;;20.80;1.00;;;;;;6201794;23;20083;-91
2023/07/18 11:52:23;;;;;;;8.30;3.45;;;20.60;1.00;;;;;;6222413;23;20025;-91
2023/07/18 11:55:14;;;;;;;7.50;3.20;;;20.50;1.00;;;;;;6199596;23;20024;-91
2023/07/18 11:58:21;;;;;;;6.80;3.33;;;20.70;1.00;;;;;;6225020;23;20024;-91
2023/07/18 12:01:12;;;;;;;7.32;3.10;;;21.00;1.00;;;;;;6211971;23;20043;-90
2023/07/18 12:04:59;;;;;;;9.98;3.67;;;21.50;1.00;;;;;;6234026;23;20021;-91
2023/07/18 12:08:23;;;;;;;;;;;;;;;;;;;;;
2023/07/18 12:11:50;;;;;;;7.65;2.80;;;22.20;1.00;;;;;;6126526;23;20022;-92
2023/07/18 12:14:45;;;;;;;10.90;3.88;;;22.30;1.00;;;;;;6136420;23;20061;-91
2023/07/18 12:22:44;;;;;;;8.25;3.55;;;23.00;1.00;;;;;;6020356;23;20426;-92
2023/07/18 12:26:26;;;;;;;;;;;;;;;;;;;;;
2023/07/18 12:33:38;;;;;;;6.47;3.13;;;24.40;1.00;;;;;;5939725;23;20041;-93
2023/07/18 12:36:28;;;;;;;9.20;3.22;;;24.80;1.00;;;;;;6021736;23;20027;-93
2023/07/18 12:39:22;;;;;;;5.65;3.20;;;25.00;1.00;;;;;;6022869;23;20462;-94
2023/07/18 12:42:10;;;;;;;5.22;2.80;;;25.40;1.00;;;;;;6040034;23;20037;-93
2023/07/18 12:44:57;;;;;;;6.60;3.10;;;25.80;1.00;;;;;;6042315;23;20110;-87
2023/07/18 12:47:45;;;;;;;4.88;2.85;;;26.00;1.00;;;;;;6037190;23;20035;-90
2023/07/18 12:50:33;;;;;;;6.50;2.95;;;26.10;1.00;;;;;;6060432;23;20033;-89
2023/07/18 12:53:20;;;;;;;8.13;3.38;;;26.30;1.00;;;;;;6124422;23;20048;-91
2023/07/18 12:56:07;;;;;;;6.05;2.75;;;26.30;1.00;;;;;;6175981;23;20021;-88
2023/07/18 12:58:55;;;;;;;6.88;3.00;;;26.00;1.00;;;;;;6214939;23;20025;-89
2023/07/18 13:01:45;;;;;;;10.02;3.33;;;25.90;1.00;;;;;;6218266;23;20039;-90
2023/07/18 13:04:32;;;;;;;6.72;3.17;;;25.80;1.00;;;;;;6216001;23;20043;-90
2023/07/18 13:07:23;;;;;;;4.43;2.92;;;25.40;1.00;;;;;;6216595;23;20031;-93
2023/07/18 13:10:13;;;;;;;8.52;3.28;;;25.20;1.00;;;;;;6218567;23;20107;-92
2023/07/18 13:13:01;;;;;;;7.28;3.55;;;25.10;1.00;;;;;;6195629;23;20029;-93
2023/07/18 13:15:48;;;;;;;7.13;3.47;;;24.80;1.00;;;;;;6215352;23;20032;-90
2023/07/18 13:18:36;;;;;;;7.43;3.50;;;24.60;1.00;;;;;;6214413;23;20028;-89
2023/07/18 13:21:23;;;;;;;4.82;3.10;;;24.30;1.00;;;;;;6218324;23;20036;-89
2023/07/18 13:24:11;;;;;;;7.00;3.08;;;24.30;1.00;;;;;;6213798;23;20025;-89
2023/07/18 13:27:00;;;;;;;14.18;3.53;;;24.40;1.00;;;;;;6214614;23;20031;-90
2023/07/18 13:29:48;;;;;;;6.53;3.38;;;25.00;1.00;;;;;;6216883;23;20261;-89
2023/07/18 13:32:41;;;;;;;6.78;3.63;;;26.00;1.00;;;;;;6216777;23;20305;-90
2023/07/18 13:35:28;;;;;;;5.03;2.70;;;27.00;1.00;;;;;;6219901;23;20021;-92
2023/07/18 13:38:16;;;;;;;5.68;3.22;;;27.80;1.00;;;;;;6195563;23;20056;-91
2023/07/18 13:41:07;;;;;;;5.60;2.80;;;28.90;1.00;;;;;;6217863;23;20423;-91
2023/07/18 13:43:55;;;;;;;7.78;3.38;;;29.90;1.00;;;;;;6215559;23;20036;-90
2023/07/18 13:46:43;;;;;;;4.95;2.90;;;29.80;1.00;;;;;;6215352;23;20448;-90
2023/07/18 13:49:37;;;;;;;5.50;3.28;;;29.70;1.00;;;;;;6219129;23;20020;-92
2023/07/18 13:52:34;;;;;;;4.88;2.70;;;29.40;1.00;;;;;;6201470;23;20027;-92
2023/07/18 13:55:42;;;;;;;6.20;2.88;;;28.60;1.00;;;;;;6198429;23;20025;-93
2023/07/18 13:58:40;;;;;;;4.90;3.35;;;27.90;1.00;;;;;;6218772;23;20107;-92
2023/07/18 14:01:27;;;;;;;4.82;2.90;;;27.10;1.00;;;;;;6197941;23;20032;-88
2023/07/18 14:04:21;;;;;;;5.93;3.07;;;26.40;1.00;;;;;;6216516;23;20020;-92
2023/07/18 14:07:26;;;;;;;;;;;;;;;;;;;;;
2023/07/18 14:10:28;;;;;;;8.32;3.55;;;25.90;1.00;;;;;;6218469;23;20101;-92
2023/07/18 14:13:21;;;;;;;11.52;3.65;;;25.20;1.00;;;;;;6199745;23;20340;-92
2023/07/18 14:16:32;;;;;;;6.95;3.20;;;25.10;1.00;;;;;;6206940;23;20031;-94
2023/07/18 14:19:23;;;;;;;8.48;3.47;;;25.10;1.00;;;;;;6221249;23;20025;-93
2023/07/18 14:22:22;;;;;;;5.32;3.13;;;24.90;1.00;;;;;;6217869;23;20025;-93
2023/07/18 14:25:09;;;;;;;10.18;3.55;;;24.90;1.00;;;;;;6198889;23;20706;-90
2023/07/18 14:27:57;;;;;;;6.93;3.50;;;24.80;1.00;;;;;;6218399;23;20036;-91
2023/07/18 14:30:44;;;;;;;6.40;3.10;;;24.90;1.00;;;;;;6229811;23;20021;-90
2023/07/18 14:33:32;;;;;;;8.13;3.53;;;24.90;1.00;;;;;;6234171;23;20024;-88
2023/07/18 14:36:23;;;;;;;6.07;3.25;;;24.70;1.00;;;;;;6232654;23;20025;-89
2023/07/18 14:39:12;;;;;;;8.43;4.07;;;24.60;1.00;;;;;;6229419;23;20059;-89
2023/07/18 14:41:59;;;;;;;7.80;3.50;;;24.80;1.00;;;;;;6230188;23;20028;-93
2023/07/18 14:44:47;;;;;;;5.60;2.67;;;25.20;1.00;;;;;;6223512;23;20039;-89
2023/07/18 14:47:34;;;;;;;10.73;4.20;;;25.40;1.00;;;;;;6202252;23;20340;-90
2023/07/18 14:50:23;;;;;;;7.90;3.50;;;25.80;1.00;;;;;;6176901;23;20020;-88
2023/07/18 14:53:10;;;;;;;7.43;3.65;;;26.10;1.00;;;;;;6220894;23;20113;-90
2023/07/18 14:55:59;;;;;;;10.25;3.80;;;26.80;1.00;;;;;;6200520;23;20331;-92
2023/07/18 14:58:46;;;;;;;5.13;3.30;;;27.10;1.00;;;;;;6221320;23;20088;-91
2023/07/18 15:01:38;;;;;;;7.10;3.55;;;27.10;1.00;;;;;;6220980;23;20034;-94
2023/07/18 15:04:25;;;;;;;7.88;3.60;;;27.20;1.00;;;;;;6223050;23;20025;-95
2023/07/18 15:07:15;;;;;;;4.35;3.25;;;27.50;1.00;;;;;;6199384;23;20039;-90
2023/07/18 15:10:05;;;;;;;8.15;3.20;;;27.80;1.00;;;;;;6201216;23;20112;-90
2023/07/18 15:12:53;;;;;;;9.13;3.03;;;27.60;1.00;;;;;;6220586;23;20020;-92
2023/07/18 15:15:42;;;;;;;8.75;3.75;;;27.70;1.00;;;;;;6219354;23;20031;-91
2023/07/18 15:18:29;;;;;;;6.45;3.35;;;28.00;1.00;;;;;;6220379;23;20295;-89
2023/07/18 15:21:18;;;;;;;5.55;3.10;;;27.90;1.00;;;;;;6197668;23;20024;-90
2023/07/18 15:24:05;;;;;;;3.95;3.30;;;27.80;1.00;;;;;;6195733;23;20131;-89
2023/07/18 15:26:53;;;;;;;8.63;4.03;;;26.80;1.00;;;;;;6204446;23;20084;-88
2023/07/18 15:29:47;;;;;;;9.75;3.10;;;26.50;1.00;;;;;;6226205;23;20031;-92
2023/07/18 15:32:40;;;;;;;9.98;4.10;;;28.00;1.00;;;;;;6202463;23;20017;-92
2023/07/18 15:35:33;;;;;;;15.38;5.15;;;29.00;1.00;;;;;;6221609;23;20044;-90
2023/07/18 15:38:23;;;;;;;9.48;4.15;;;29.30;1.00;;;;;;6219150;23;20055;-94
2023/07/18 15:41:13;;;;;;;9.73;3.50;;;29.50;1.00;;;;;;6230860;23;20108;-93
2023/07/18 15:44:03;;;;;;;6.78;3.60;;;29.50;1.00;;;;;;6211090;23;20029;-93
2023/07/18 15:46:52;;;;;;;12.57;3.95;;;29.30;1.00;;;;;;6229257;23;20020;-92